Currently 68°F in Pinon Hills, California, USA
68°F
74°F / 67°F
4 mph W
0.00"
Thursday, September 23, 2021 5:24 AM PDT

Pinon Hills, California Climate Summary
Typical April Day

Normal High:    69.7°F (20.9°C)
Normal Low:    47.0°F (8.4°C)
Average:    58.2°F (14.5°C)

Hour    Temperature    Wind Speed    Humidity
12:00 AM    53°F (12°C)    3 mph    45%
1:00 AM    52°F (11°C)    3 mph    46%
2:00 AM    51°F (11°C)    3 mph    47%
3:00 AM    51°F (10°C)    3 mph    48%
4:00 AM    50°F (10°C)    3 mph    49%
5:00 AM    50°F (10°C)    3 mph    48%
6:00 AM    49°F (10°C)    3 mph    49%
7:00 AM    51°F (11°C)    3 mph    48%
8:00 AM    56°F (13°C)    3 mph    43%
9:00 AM    59°F (15°C)    4 mph    39%
10:00 AM    61°F (16°C)    4 mph    37%
11:00 AM    63°F (17°C)    4 mph    34%
12:00 PM    65°F (18°C)    4 mph    31%
1:00 PM    66°F (19°C)    5 mph    29%
2:00 PM    68°F (20°C)    4 mph    27%
3:00 PM    68°F (20°C)    5 mph    27%
4:00 PM    68°F (20°C)    5 mph    27%
5:00 PM    67°F (19°C)    5 mph    29%
6:00 PM    65°F (18°C)    5 mph    32%
7:00 PM    62°F (16°C)    4 mph    37%
8:00 PM    57°F (14°C)    4 mph    42%
9:00 PM    56°F (13°C)    4 mph    43%
10:00 PM    55°F (13°C)    3 mph    44%
11:00 PM    53°F (12°C)    3 mph    45%
 

The Pinon Hills, California weather pages are a service of WeatherCurrents.
Copyright ©2021  WeatherCurrents. All rights reserved. - Submit questions and comments - Privacy Policy